createdAt,value
2019-02-24T00:01:57.061Z,2.00
2019-02-24T00:04:25.548Z,2.00
2019-02-24T00:06:54.382Z,1.99
2019-02-24T00:09:22.867Z,1.99
2019-02-24T00:11:51.269Z,1.96
2019-02-24T00:14:19.710Z,1.85
2019-02-24T00:16:48.277Z,1.86
2019-02-24T00:19:16.754Z,1.80
2019-02-24T00:21:45.201Z,1.70
2019-02-24T00:24:13.720Z,1.59
2019-02-24T00:26:42.295Z,1.58
2019-02-24T00:29:10.758Z,1.49
2019-02-24T00:31:39.433Z,1.49
2019-02-24T00:34:08.081Z,1.52
2019-02-24T00:37:16.907Z,1.52
2019-02-24T00:42:34.561Z,1.65
2019-02-24T00:48:11.280Z,1.72
2019-02-24T00:50:39.741Z,1.76
2019-02-24T00:53:08.193Z,1.74
2019-02-24T00:55:36.777Z,1.75
2019-02-24T00:58:05.248Z,1.71
2019-02-24T01:00:33.892Z,1.71
2019-02-24T01:03:02.419Z,1.72
2019-02-24T01:05:30.891Z,1.63
2019-02-24T01:07:59.532Z,1.63
2019-02-24T01:11:08.232Z,1.69
2019-02-24T01:13:37.065Z,1.75
2019-02-24T01:16:05.607Z,1.79
2019-02-24T01:18:34.053Z,1.69
2019-02-24T01:21:02.602Z,1.70
2019-02-24T01:23:31.173Z,1.70
2019-02-24T01:25:59.720Z,1.74
2019-02-24T01:28:28.378Z,1.68
2019-02-24T01:30:56.977Z,1.52
2019-02-24T01:33:25.487Z,1.53
2019-02-24T01:35:54.121Z,1.50
2019-02-24T01:38:22.602Z,1.46
2019-02-24T01:40:51.051Z,1.47
2019-02-24T01:43:19.537Z,1.53
2019-02-24T01:45:47.975Z,1.62
2019-02-24T01:48:16.510Z,1.66
2019-02-24T01:50:45.080Z,1.68
2019-02-24T01:53:13.685Z,1.67
2019-02-24T01:55:42.179Z,1.67
2019-02-24T01:58:10.693Z,1.68
2019-02-24T02:00:39.146Z,1.68
2019-02-24T02:03:07.936Z,1.69
2019-02-24T02:05:36.377Z,1.67
2019-02-24T02:08:05.037Z,1.61
2019-02-24T02:10:33.498Z,1.53
2019-02-24T02:13:02.020Z,1.46
2019-02-24T02:15:30.647Z,1.46
2019-02-24T02:17:59.446Z,1.45
2019-02-24T02:20:27.959Z,1.40
2019-02-24T02:22:56.502Z,1.37
2019-02-24T02:25:24.904Z,1.33
2019-02-24T02:27:53.433Z,1.27
2019-02-24T02:30:22.007Z,1.15
2019-02-24T02:32:50.655Z,1.09
2019-02-24T02:35:19.231Z,1.13
2019-02-24T02:37:47.693Z,1.00
2019-02-24T02:40:16.243Z,0.91
2019-02-24T02:42:45.090Z,0.96
2019-02-24T02:45:13.882Z,1.02
2019-02-24T02:47:42.360Z,1.10
2019-02-24T02:50:10.772Z,1.20
2019-02-24T02:52:39.306Z,1.27
2019-02-24T02:55:07.929Z,1.28
2019-02-24T02:57:36.575Z,1.20
2019-02-24T03:00:45.038Z,1.24
2019-02-24T03:03:13.474Z,1.33
2019-02-24T03:08:17.438Z,1.39
2019-02-24T03:10:45.937Z,1.40
2019-02-24T03:13:14.481Z,1.38
2019-02-24T03:15:43.056Z,1.37
2019-02-24T03:18:11.450Z,1.37
2019-02-24T03:20:39.895Z,1.31
2019-02-24T03:23:08.441Z,1.24
2019-02-24T03:25:37.214Z,1.25
2019-02-24T03:28:06.104Z,1.24
2019-02-24T03:30:34.645Z,1.22
2019-02-24T03:33:03.073Z,1.00
2019-02-24T03:35:44.306Z,1.04
2019-02-24T03:38:12.845Z,1.10
2019-02-24T03:40:41.480Z,1.07
2019-02-24T03:43:10.001Z,1.12
2019-02-24T03:45:38.441Z,1.07
2019-02-24T03:48:06.936Z,1.12
2019-02-24T03:50:35.655Z,1.15
2019-02-24T03:53:04.420Z,1.15
2019-02-24T03:55:32.896Z,1.15
2019-02-24T03:58:01.341Z,1.18
2019-02-24T04:00:29.892Z,1.07
2019-02-24T04:02:58.351Z,0.99
2019-02-24T04:05:26.733Z,0.96
2019-02-24T04:07:55.193Z,0.99
2019-02-24T04:10:24.029Z,0.95
2019-02-24T04:12:52.481Z,0.95
2019-02-24T04:15:21.401Z,0.92
2019-02-24T04:17:50.306Z,0.73
2019-02-24T04:20:18.966Z,0.67
2019-02-24T04:22:47.407Z,0.69
2019-02-24T04:25:15.782Z,0.69
2019-02-24T04:27:44.740Z,0.66
2019-02-24T04:30:13.320Z,0.64
2019-02-24T04:32:41.887Z,0.57
2019-02-24T04:35:10.475Z,0.56
2019-02-24T04:37:39.000Z,0.60
2019-02-24T04:40:47.425Z,0.65
2019-02-24T04:43:15.981Z,0.72
2019-02-24T04:45:44.427Z,0.70
2019-02-24T04:48:13.452Z,0.70
2019-02-24T04:50:41.819Z,0.73
2019-02-24T04:53:10.370Z,0.80
2019-02-24T04:55:38.761Z,0.87
2019-02-24T04:58:07.219Z,0.86
2019-02-24T05:00:35.764Z,0.83
2019-02-24T05:03:04.207Z,0.82
2019-02-24T05:05:32.643Z,0.79
2019-02-24T05:08:01.520Z,0.83
2019-02-24T05:10:29.912Z,0.89
2019-02-24T05:12:58.334Z,0.94
2019-02-24T05:15:27.173Z,0.98
2019-02-24T05:17:55.648Z,1.00
2019-02-24T05:20:24.132Z,1.02
2019-02-24T05:22:52.623Z,1.04
2019-02-24T05:25:21.074Z,1.04
2019-02-24T05:27:49.547Z,1.03
2019-02-24T05:30:18.125Z,1.07
2019-02-24T05:32:46.638Z,1.04
2019-02-24T05:35:15.180Z,0.94
2019-02-24T05:37:43.775Z,0.96
2019-02-24T05:40:12.208Z,0.99
2019-02-24T05:42:42.459Z,0.99
2019-02-24T05:45:10.993Z,1.02
2019-02-24T05:47:39.449Z,1.04
2019-02-24T05:50:07.957Z,1.05
2019-02-24T05:52:36.374Z,1.08
2019-02-24T05:57:59.892Z,1.09
2019-02-24T06:00:28.412Z,1.08
2019-02-24T06:02:57.118Z,1.09
2019-02-24T06:05:25.618Z,1.07
2019-02-24T06:07:54.384Z,1.06
2019-02-24T06:10:23.272Z,1.10
2019-02-24T06:12:51.649Z,1.10
2019-02-24T06:15:20.215Z,1.11
2019-02-24T06:17:48.658Z,1.14
2019-02-24T06:20:17.156Z,1.15
2019-02-24T06:22:45.672Z,1.18
2019-02-24T06:25:14.189Z,1.16
2019-02-24T06:27:42.680Z,1.12
2019-02-24T06:30:11.186Z,0.98
2019-02-24T06:32:39.655Z,1.01
2019-02-24T06:35:49.315Z,0.92
2019-02-24T06:38:18.080Z,0.93
2019-02-24T06:40:47.121Z,0.98
2019-02-24T06:43:15.589Z,1.00
2019-02-24T06:45:44.023Z,0.81
2019-02-24T06:48:12.528Z,0.80
2019-02-24T06:51:00.080Z,0.75
2019-02-24T06:53:28.550Z,0.71
2019-02-24T06:55:56.959Z,0.83
2019-02-24T06:58:25.467Z,0.83
2019-02-24T07:00:53.983Z,0.98
2019-02-24T07:03:22.800Z,1.10
2019-02-24T07:05:51.364Z,1.10
2019-02-24T07:08:19.846Z,1.07
2019-02-24T07:10:48.285Z,1.06
2019-02-24T07:13:17.009Z,1.12
2019-02-24T07:15:45.472Z,1.20
2019-02-24T07:18:33.199Z,1.28
2019-02-24T07:21:01.658Z,1.40
2019-02-24T07:23:30.135Z,1.41
2019-02-24T07:25:58.583Z,1.51
2019-02-24T07:28:27.063Z,1.63
2019-02-24T07:30:55.897Z,1.66
2019-02-24T07:33:24.804Z,1.63
2019-02-24T07:35:53.452Z,1.67
2019-02-24T07:38:21.951Z,1.66
2019-02-24T07:40:50.405Z,1.58
2019-02-24T07:43:18.951Z,1.61
2019-02-24T07:45:47.414Z,1.60
2019-02-24T07:48:15.874Z,1.71
2019-02-24T07:50:44.374Z,1.73
2019-02-24T07:53:12.832Z,1.58
2019-02-24T07:55:41.413Z,1.51
2019-02-24T07:58:09.917Z,1.54
2019-02-24T08:00:38.478Z,1.56
2019-02-24T08:03:07.310Z,1.75
2019-02-24T08:05:35.839Z,1.89
2019-02-24T08:08:04.786Z,2.02
2019-02-24T08:10:33.572Z,2.05
2019-02-24T08:13:02.020Z,2.22
2019-02-24T08:15:30.570Z,2.32
2019-02-24T08:17:59.118Z,2.30
2019-02-24T08:20:27.585Z,2.23
2019-02-24T08:22:56.120Z,2.09
2019-02-24T08:25:24.631Z,2.09
2019-02-24T08:27:55.548Z,2.05
2019-02-24T08:30:23.814Z,2.09
2019-02-24T08:32:52.433Z,2.14
2019-02-24T08:35:21.029Z,2.23
2019-02-24T08:37:49.541Z,2.29
2019-02-24T08:40:18.075Z,2.30
2019-02-24T08:42:46.484Z,2.39
2019-02-24T08:45:15.297Z,2.54
2019-02-24T08:47:44.315Z,2.60
2019-02-24T08:50:12.801Z,2.66
2019-02-24T08:52:41.422Z,2.80
2019-02-24T08:55:09.952Z,2.97
2019-02-24T08:57:38.464Z,2.94
2019-02-24T09:00:51.046Z,2.85
2019-02-24T09:03:17.483Z,2.82
2019-02-24T09:05:45.863Z,2.65
2019-02-24T09:08:14.648Z,2.57
2019-02-24T09:10:43.439Z,2.56
2019-02-24T09:13:11.882Z,2.57
2019-02-24T09:15:40.816Z,2.69
2019-02-24T09:18:49.273Z,2.88
2019-02-24T09:21:17.850Z,3.09
2019-02-24T09:23:46.710Z,3.21
2019-02-24T09:26:15.187Z,3.30
2019-02-24T09:28:43.792Z,3.53
2019-02-24T09:31:12.260Z,3.70
2019-02-24T09:33:40.737Z,3.88
2019-02-24T09:36:09.431Z,4.00
2019-02-24T09:38:38.249Z,4.13
2019-02-24T09:41:06.819Z,4.18
2019-02-24T09:43:35.352Z,4.27
2019-02-24T09:46:04.176Z,4.39
2019-02-24T09:48:32.718Z,4.47
2019-02-24T09:51:01.267Z,4.56
2019-02-24T09:53:30.137Z,4.67
2019-02-24T09:55:58.709Z,4.81
2019-02-24T09:58:27.228Z,4.92
2019-02-24T10:00:55.851Z,5.01
2019-02-24T10:03:24.272Z,5.07
2019-02-24T10:05:53.164Z,5.16
2019-02-24T10:08:21.635Z,5.32
2019-02-24T10:10:50.081Z,5.49
2019-02-24T10:13:19.019Z,5.63
2019-02-24T10:15:47.464Z,5.82
2019-02-24T10:18:15.954Z,6.01
2019-02-24T10:20:44.873Z,6.13
2019-02-24T10:23:13.428Z,6.26
2019-02-24T10:25:41.828Z,6.40
2019-02-24T10:28:10.329Z,6.49
2019-02-24T10:30:38.896Z,6.60
2019-02-24T10:33:07.461Z,6.73
2019-02-24T10:35:35.921Z,6.84
2019-02-24T10:38:04.543Z,6.99
2019-02-24T10:40:33.007Z,7.09
2019-02-24T10:43:02.040Z,7.15
2019-02-24T10:45:30.926Z,7.32
2019-02-24T10:47:59.456Z,7.64
2019-02-24T10:50:28.510Z,7.71
2019-02-24T10:52:57.002Z,7.97
2019-02-24T10:55:25.512Z,8.14
2019-02-24T10:57:54.085Z,8.39
2019-02-24T11:00:22.791Z,8.71
2019-02-24T11:02:51.327Z,8.87
2019-02-24T11:05:19.852Z,8.70
2019-02-24T11:07:48.458Z,9.06
2019-02-24T11:10:17.007Z,9.08
2019-02-24T11:12:45.525Z,9.06
2019-02-24T11:15:54.247Z,9.14
2019-02-24T11:18:22.743Z,9.48
2019-02-24T11:20:51.292Z,9.52
2019-02-24T11:23:19.891Z,9.70
2019-02-24T11:25:48.443Z,9.92
2019-02-24T11:28:16.922Z,10.02
2019-02-24T11:30:45.467Z,10.09
2019-02-24T11:33:14.066Z,10.36
2019-02-24T11:35:42.528Z,10.51
2019-02-24T11:38:11.576Z,10.41
2019-02-24T11:40:40.183Z,10.38
2019-02-24T11:43:08.830Z,10.44
2019-02-24T11:45:37.291Z,10.52
2019-02-24T11:48:05.874Z,10.62
2019-02-24T11:50:34.418Z,10.63
2019-02-24T11:53:03.267Z,10.64
2019-02-24T11:55:31.722Z,10.56
2019-02-24T11:58:00.219Z,10.44
2019-02-24T12:00:28.682Z,10.55
2019-02-24T12:02:57.150Z,10.63
2019-02-24T12:05:25.764Z,10.55
2019-02-24T12:07:54.240Z,10.57
2019-02-24T12:10:22.769Z,10.58
2019-02-24T12:12:51.300Z,10.60
2019-02-24T12:15:19.801Z,10.69
2019-02-24T12:17:48.352Z,10.58
2019-02-24T12:20:16.966Z,10.43
2019-02-24T12:22:45.492Z,10.46
2019-02-24T12:25:14.061Z,10.60
2019-02-24T12:27:42.509Z,10.60
2019-02-24T12:30:30.358Z,10.59
2019-02-24T12:32:58.826Z,10.72
2019-02-24T12:35:27.488Z,10.88
2019-02-24T12:37:56.008Z,10.90
2019-02-24T12:40:24.622Z,10.80
2019-02-24T12:42:54.576Z,10.76
2019-02-24T12:45:23.464Z,10.79
2019-02-24T12:47:51.995Z,10.65
2019-02-24T12:50:20.579Z,10.63
2019-02-24T12:52:49.489Z,10.62
2019-02-24T12:55:17.861Z,10.57
2019-02-24T12:57:46.418Z,10.47
2019-02-24T13:00:34.213Z,10.45
2019-02-24T13:03:02.763Z,10.46
2019-02-24T13:05:31.449Z,10.42
2019-02-24T13:07:59.866Z,10.39
2019-02-24T13:10:28.403Z,10.39
2019-02-24T13:12:56.896Z,10.35
2019-02-24T13:15:25.347Z,10.33
2019-02-24T13:17:53.911Z,10.32
2019-02-24T13:20:22.490Z,10.30
2019-02-24T13:22:51.056Z,10.29
2019-02-24T13:25:19.531Z,10.27
2019-02-24T13:27:48.020Z,10.28
2019-02-24T13:30:56.713Z,10.30
2019-02-24T13:33:25.219Z,10.25
2019-02-24T13:35:53.664Z,10.29
2019-02-24T13:38:22.152Z,10.30
2019-02-24T13:40:50.599Z,10.24
2019-02-24T13:43:19.226Z,10.19
2019-02-24T13:45:47.696Z,10.21
2019-02-24T13:48:16.167Z,10.19
2019-02-24T13:50:44.720Z,10.12
2019-02-24T13:53:13.286Z,10.05
2019-02-24T13:55:42.118Z,10.01
2019-02-24T13:58:10.667Z,9.98
2019-02-24T14:00:39.133Z,9.94
2019-02-24T14:03:07.722Z,9.90
2019-02-24T14:05:36.124Z,9.86
2019-02-24T14:08:04.855Z,9.85
2019-02-24T14:10:33.386Z,9.84
2019-02-24T14:13:01.853Z,9.93
2019-02-24T14:15:30.731Z,10.02
2019-02-24T14:17:59.237Z,9.99
2019-02-24T14:20:27.787Z,9.93
2019-02-24T14:26:04.621Z,10.04
2019-02-24T14:28:33.173Z,10.01
2019-02-24T14:31:02.080Z,10.03
2019-02-24T14:33:30.551Z,10.12
2019-02-24T14:35:59.001Z,10.24
2019-02-24T14:38:27.674Z,10.75
2019-02-24T14:40:56.248Z,12.02
2019-02-24T14:43:24.783Z,13.67
2019-02-24T14:45:53.312Z,14.85
2019-02-24T14:48:21.791Z,15.78
2019-02-24T14:50:50.338Z,16.35
2019-02-24T14:53:18.825Z,16.67
2019-02-24T14:55:47.294Z,16.40
2019-02-24T14:58:15.784Z,16.56
2019-02-24T15:00:44.295Z,15.89
2019-02-24T15:03:12.971Z,14.84
2019-02-24T15:05:41.849Z,13.82
2019-02-24T15:08:10.566Z,12.97
2019-02-24T15:10:39.280Z,12.42
2019-02-24T15:13:07.865Z,11.90
2019-02-24T15:15:55.819Z,11.59
2019-02-24T15:18:24.330Z,11.26
2019-02-24T15:20:52.850Z,11.12
2019-02-24T15:23:21.312Z,10.94
2019-02-24T15:25:49.880Z,10.82
2019-02-24T15:28:18.408Z,10.77
2019-02-24T15:30:47.189Z,10.66
2019-02-24T15:33:15.660Z,10.56
2019-02-24T15:35:44.212Z,10.51
2019-02-24T15:38:12.736Z,10.43
2019-02-24T15:40:41.512Z,10.31
2019-02-24T15:43:10.165Z,10.23
2019-02-24T15:45:38.781Z,10.10
2019-02-24T15:48:07.406Z,10.00
2019-02-24T15:50:36.070Z,9.96
2019-02-24T15:53:04.658Z,9.91
2019-02-24T15:55:33.177Z,9.87
2019-02-24T15:58:01.828Z,9.85
2019-02-24T16:00:30.520Z,9.76
2019-02-24T16:03:01.853Z,9.67
2019-02-24T16:05:29.330Z,9.61
2019-02-24T16:07:58.198Z,9.53
2019-02-24T16:10:26.779Z,9.46
2019-02-24T16:12:55.312Z,9.43
2019-02-24T16:16:03.766Z,9.35
2019-02-24T16:18:32.345Z,9.29
2019-02-24T16:21:00.901Z,9.24
2019-02-24T16:23:29.539Z,9.20
2019-02-24T16:25:58.216Z,9.15
2019-02-24T16:28:26.730Z,9.13
2019-02-24T16:30:55.381Z,9.07
2019-02-24T16:33:24.078Z,9.03
2019-02-24T16:35:52.648Z,8.97
2019-02-24T16:38:21.193Z,8.91
2019-02-24T16:40:49.780Z,8.87
2019-02-24T16:43:18.295Z,8.82
2019-02-24T16:45:47.087Z,8.75
2019-02-24T16:48:15.933Z,8.73
2019-02-24T16:50:44.639Z,8.68
2019-02-24T16:56:04.541Z,8.61
2019-02-24T16:58:34.349Z,8.62
2019-02-24T17:01:03.502Z,8.61
2019-02-24T17:03:32.757Z,8.62
2019-02-24T17:06:01.726Z,8.63
2019-02-24T17:08:30.311Z,8.66
2019-02-24T17:11:07.137Z,8.63
2019-02-24T17:13:30.997Z,8.60
2019-02-24T17:15:59.506Z,8.56
2019-02-24T17:18:28.278Z,8.55
2019-02-24T17:20:57.225Z,8.52
2019-02-24T17:23:26.097Z,8.50
2019-02-24T17:25:54.760Z,8.46
2019-02-24T17:28:23.319Z,8.42
2019-02-24T17:30:51.885Z,8.37
2019-02-24T17:33:29.499Z,8.33
2019-02-24T17:35:50.751Z,8.28
2019-02-24T17:38:19.267Z,8.23
2019-02-24T17:40:47.833Z,8.23
2019-02-24T17:43:16.231Z,8.25
2019-02-24T17:45:44.993Z,8.24
2019-02-24T17:48:15.297Z,8.21
2019-02-24T17:50:43.881Z,8.17
2019-02-24T17:53:12.409Z,8.12
2019-02-24T17:55:41.048Z,8.09
2019-02-24T17:58:09.592Z,8.02
2019-02-24T18:00:57.435Z,7.99
2019-02-24T18:03:25.887Z,7.94
2019-02-24T18:05:54.559Z,7.89
2019-02-24T18:08:28.276Z,7.88
2019-02-24T18:10:53.518Z,7.83
2019-02-24T18:13:22.443Z,7.80
2019-02-24T18:15:51.135Z,7.76
2019-02-24T18:18:19.617Z,7.74
2019-02-24T18:20:48.129Z,7.71
2019-02-24T18:23:16.547Z,7.70
2019-02-24T18:25:45.469Z,7.69
2019-02-24T18:28:14.081Z,7.63
2019-02-24T18:30:42.712Z,7.61
2019-02-24T18:33:11.500Z,7.59
2019-02-24T18:35:40.166Z,7.57
2019-02-24T18:38:08.737Z,7.56
2019-02-24T18:40:37.327Z,7.54
2019-02-24T18:43:05.912Z,7.51
2019-02-24T18:45:34.399Z,7.48
2019-02-24T18:48:02.906Z,7.45
2019-02-24T18:50:31.406Z,7.42
2019-02-24T18:52:59.913Z,7.37
2019-02-24T18:55:28.465Z,7.36
2019-02-24T18:57:57.010Z,7.34
2019-02-24T19:00:25.513Z,7.31
2019-02-24T19:02:55.136Z,7.28
2019-02-24T19:05:24.841Z,7.27
2019-02-24T19:07:53.446Z,7.25
2019-02-24T19:11:01.938Z,7.25
2019-02-24T19:13:30.375Z,7.22
2019-02-24T19:15:59.145Z,7.22
2019-02-24T19:18:27.621Z,7.19
2019-02-24T19:20:56.144Z,7.16
2019-02-24T19:23:24.569Z,7.14
2019-02-24T19:25:53.490Z,7.12
2019-02-24T19:28:21.872Z,7.12
2019-02-24T19:30:50.355Z,7.11
2019-02-24T19:33:18.953Z,7.08
2019-02-24T19:35:47.484Z,7.05
2019-02-24T19:38:16.065Z,7.04
2019-02-24T19:40:44.574Z,7.05
2019-02-24T19:43:13.374Z,7.12
2019-02-24T19:45:41.929Z,7.15
2019-02-24T19:48:10.559Z,7.13
2019-02-24T19:50:39.083Z,7.18
2019-02-24T19:53:14.969Z,7.20
2019-02-24T19:55:43.549Z,7.18
2019-02-24T19:58:12.082Z,7.16
2019-02-24T20:00:40.564Z,7.14
2019-02-24T20:03:09.100Z,7.13
2019-02-24T20:05:37.643Z,7.12
2019-02-24T20:08:06.164Z,7.11
2019-02-24T20:10:34.724Z,7.10
2019-02-24T20:13:03.316Z,7.08
2019-02-24T20:15:32.252Z,7.06
2019-02-24T20:18:00.868Z,7.03
2019-02-24T20:20:29.380Z,6.97
2019-02-24T20:22:57.931Z,6.94
2019-02-24T20:25:26.513Z,6.94
2019-02-24T20:27:55.381Z,6.93
2019-02-24T20:30:43.148Z,6.94
2019-02-24T20:33:11.737Z,6.93
2019-02-24T20:35:40.805Z,6.91
2019-02-24T20:38:09.351Z,6.88
2019-02-24T20:40:37.956Z,6.87
2019-02-24T20:43:06.622Z,6.84
2019-02-24T20:45:35.220Z,6.81
2019-02-24T20:48:03.809Z,6.78
2019-02-24T20:50:51.662Z,6.75
2019-02-24T20:53:20.216Z,6.75
2019-02-24T20:55:49.138Z,6.74
2019-02-24T20:58:17.918Z,6.71
2019-02-24T21:03:37.703Z,6.67
2019-02-24T21:06:06.100Z,6.65
2019-02-24T21:08:34.746Z,6.62
2019-02-24T21:11:03.315Z,6.59
2019-02-24T21:13:31.946Z,6.57
2019-02-24T21:16:00.454Z,6.55
2019-02-24T21:18:29.995Z,6.54
2019-02-24T21:20:59.570Z,6.49
2019-02-24T21:23:28.173Z,6.47
2019-02-24T21:25:56.805Z,6.46
2019-02-24T21:28:25.317Z,6.42
2019-02-24T21:30:53.945Z,6.40
2019-02-24T21:33:22.559Z,6.40
2019-02-24T21:35:51.216Z,6.38
2019-02-24T21:38:19.942Z,6.36
2019-02-24T21:40:48.406Z,6.33
2019-02-24T21:43:16.883Z,6.33
2019-02-24T21:45:45.446Z,6.31
2019-02-24T21:48:13.887Z,6.30
2019-02-24T21:50:42.495Z,6.27
2019-02-24T21:53:11.082Z,6.26
2019-02-24T21:55:39.535Z,6.24
2019-02-24T21:58:08.087Z,6.18
2019-02-24T22:03:25.821Z,6.20
2019-02-24T22:05:54.360Z,6.20
2019-02-24T22:08:22.812Z,6.18
2019-02-24T22:10:51.430Z,6.20
2019-02-24T22:13:19.956Z,6.17
2019-02-24T22:15:48.554Z,6.11
2019-02-24T22:18:17.098Z,6.13
2019-02-24T22:20:45.628Z,6.14
2019-02-24T22:23:14.555Z,6.12
2019-02-24T22:25:43.092Z,6.11
2019-02-24T22:28:11.734Z,6.11
2019-02-24T22:30:40.412Z,6.10
2019-02-24T22:33:09.026Z,6.06
2019-02-24T22:35:37.741Z,6.05
2019-02-24T22:38:06.341Z,6.03
2019-02-24T22:40:34.787Z,6.02
2019-02-24T22:43:03.369Z,6.03
2019-02-24T22:45:31.830Z,6.01
2019-02-24T22:48:00.337Z,5.99
2019-02-24T22:50:28.793Z,5.96
2019-02-24T22:52:58.286Z,5.93
2019-02-24T22:55:26.797Z,5.91
2019-02-24T22:57:55.261Z,5.91
2019-02-24T23:01:03.753Z,5.90
2019-02-24T23:04:12.238Z,5.88
2019-02-24T23:06:40.769Z,5.84
2019-02-24T23:09:49.219Z,5.82
2019-02-24T23:12:17.843Z,5.78
2019-02-24T23:14:46.314Z,5.73
2019-02-24T23:17:14.906Z,5.69
2019-02-24T23:19:43.737Z,5.70
2019-02-24T23:22:12.378Z,5.68
2019-02-24T23:24:40.993Z,5.67
2019-02-24T23:27:09.553Z,5.68
2019-02-24T23:29:37.995Z,5.67
2019-02-24T23:32:06.558Z,5.68
2019-02-24T23:34:35.072Z,5.64
2019-02-24T23:37:03.676Z,5.62
2019-02-24T23:39:32.563Z,5.60
2019-02-24T23:42:01.075Z,5.59
2019-02-24T23:44:29.686Z,5.59
2019-02-24T23:46:58.187Z,5.56
2019-02-24T23:49:26.643Z,5.57
2019-02-24T23:51:55.145Z,5.55
2019-02-24T23:54:23.657Z,5.55
2019-02-24T23:56:52.265Z,5.54
2019-02-24T23:59:20.911Z,5.54
